Time;durP1;ratioP1;P1;durP2;ratioP2;P2;SDS_P1;SDS_P2;PMS_P1;PMS_P2;Temp;Humidity;BMP_temperature;BMP_pressure;BME280_temperature;BME280_humidity;BME280_pressure;Samples;Min_cycle;Max_cycle;Signal;HPM_P1;HPM_P2
2024/01/16 00:00:54;;;;;;;19.02;10.68;;;;;;;-7.84;91.75;100472.91;10252740;28;20039;-74
2024/01/16 00:05:55;;;;;;;16.08;9.25;;;;;;;-7.85;91.91;100466.06;10252787;28;20089;-75
2024/01/16 00:10:56;;;;;;;18.00;10.05;;;;;;;-8.07;92.55;100434.13;10253027;29;20055;-74
2024/01/16 00:15:57;;;;;;;17.73;9.65;;;;;;;-7.81;92.56;100459.06;10252663;28;20123;-74
2024/01/16 00:20:57;;;;;;;15.93;9.30;;;;;;;-7.73;92.76;100477.72;10251835;28;20174;-75
2024/01/16 00:25:58;;;;;;;15.85;9.52;;;;;;;-7.60;92.70;100466.13;10251346;28;20129;-74
2024/01/16 00:30:59;;;;;;;17.58;9.50;;;;;;;-7.51;92.32;100462.38;10251956;29;20134;-74
2024/01/16 00:36:00;;;;;;;18.80;9.75;;;;;;;-7.46;92.12;100467.41;10252178;29;20039;-74
2024/01/16 00:41:01;;;;;;;20.92;9.63;;;;;;;-7.50;92.08;100464.06;10252006;29;20069;-74
2024/01/16 00:46:02;;;;;;;18.50;10.27;;;;;;;-7.90;91.91;100406.03;10251055;28;20142;-74
2024/01/16 00:51:03;;;;;;;20.58;8.43;;;;;;;-7.59;91.67;100444.59;10251029;28;20058;-75
2024/01/16 00:56:04;;;;;;;18.30;9.90;;;;;;;-7.48;91.58;100453.69;10252214;29;20034;-74
2024/01/16 01:01:05;;;;;;;21.05;10.15;;;;;;;-7.61;91.60;100450.69;10250606;28;20122;-75
2024/01/16 01:06:06;;;;;;;20.52;10.05;;;;;;;-7.63;92.12;100450.75;10250629;28;20141;-75
2024/01/16 01:11:06;;;;;;;20.80;10.80;;;;;;;-8.27;91.72;100345.38;10251196;28;20085;-75
2024/01/16 01:16:08;;;;;;;19.38;10.55;;;;;;;-7.62;92.33;100415.47;10251565;28;20039;-75
2024/01/16 01:21:09;;;;;;;18.52;9.32;;;;;;;-7.59;92.04;100415.38;10250376;28;20415;-75
2024/01/16 01:26:10;;;;;;;21.38;9.80;;;;;;;-7.63;91.77;100416.34;10250921;28;20046;-75
2024/01/16 01:31:11;;;;;;;20.20;10.60;;;;;;;-7.89;91.13;100400.00;10251296;28;20051;-75
2024/01/16 01:36:12;;;;;;;21.05;12.18;;;;;;;-7.74;91.82;100421.03;10257003;28;20171;-74
2024/01/16 01:41:13;;;;;;;18.48;10.52;;;;;;;-7.76;92.30;100422.81;10254257;28;20122;-75
2024/01/16 01:46:17;;;;;;;19.60;10.80;;;;;;;-7.68;92.52;100418.25;10256379;28;20522;-75
2024/01/16 01:51:19;;;;;;;20.70;10.48;;;;;;;-7.65;92.43;100416.41;10257510;28;20047;-74
2024/01/16 01:56:21;;;;;;;21.10;11.35;;;;;;;-7.98;91.94;100366.78;10258185;28;20043;-74
2024/01/16 02:01:23;;;;;;;24.15;11.60;;;;;;;-7.86;91.74;100406.81;10257593;28;20040;-74
2024/01/16 02:06:26;;;;;;;23.85;11.93;;;;;;;-7.90;92.00;100403.47;10257248;28;20043;-74
2024/01/16 02:11:27;;;;;;;23.73;11.77;;;;;;;-7.79;92.59;100392.81;10256599;28;20050;-74
2024/01/16 02:16:38;;;;;;;22.40;11.35;;;;;;;-7.66;92.75;100377.75;10255537;28;20051;-74
2024/01/16 02:21:42;;;;;;;25.35;12.13;;;;;;;-7.70;92.52;100376.19;10256548;28;20043;-73
2024/01/16 02:26:43;;;;;;;26.85;12.68;;;;;;;-7.82;92.08;100349.91;10256180;28;20043;-75
2024/01/16 02:31:44;;;;;;;23.33;12.13;;;;;;;-7.56;92.80;100374.00;10257624;28;20039;-74
2024/01/16 02:36:45;;;;;;;31.25;13.05;;;;;;;-7.57;92.18;100367.13;10252303;28;20077;-75
2024/01/16 02:41:45;;;;;;;29.23;14.93;;;;;;;-7.73;92.17;100346.19;10254977;28;20062;-74
2024/01/16 02:46:46;;;;;;;26.65;14.00;;;;;;;-8.14;91.83;100307.16;10255129;28;20039;-74
2024/01/16 02:51:48;;;;;;;26.83;14.25;;;;;;;-8.27;91.97;100300.72;10255111;28;20090;-74
2024/01/16 02:56:49;;;;;;;28.42;15.25;;;;;;;-8.02;92.02;100362.63;10255985;28;20070;-75
2024/01/16 03:02:09;;;;;;;28.83;14.73;;;;;;;-8.11;91.47;100362.91;10247213;29;20057;-75
2024/01/16 03:07:10;;;;;;;31.52;14.75;;;;;;;-8.69;91.28;100314.13;10249663;28;20259;-76
2024/01/16 03:12:11;;;;;;;28.10;13.70;;;;;;;-8.71;91.75;100307.31;10243781;28;20171;-74
2024/01/16 03:17:30;;;;;;;32.60;15.02;;;;;;;-8.52;91.53;100342.78;10245330;28;20050;-75
2024/01/16 03:22:31;;;;;;;29.33;14.60;;;;;;;-8.75;91.20;100346.03;10237119;29;20138;-74
2024/01/16 03:27:31;;;;;;;25.70;12.50;;;;;;;-9.15;91.17;100291.47;10254585;28;20134;-76
2024/01/16 03:32:51;;;;;;;25.15;12.27;;;;;;;-9.25;91.22;100289.16;10253635;28;20400;-74
2024/01/16 03:37:51;;;;;;;28.90;13.90;;;;;;;-8.98;91.54;100353.59;10254169;28;20045;-73
2024/01/16 03:42:52;;;;;;;27.33;12.90;;;;;;;-8.97;91.25;100342.44;10253630;28;20055;-73
2024/01/16 03:47:53;;;;;;;22.40;11.70;;;;;;;-8.98;91.25;100340.72;10252955;28;20047;-75
2024/01/16 03:52:54;;;;;;;23.25;11.90;;;;;;;-9.23;91.07;100294.28;10252772;28;20043;-74
2024/01/16 03:57:54;;;;;;;25.60;12.05;;;;;;;-9.23;90.72;100330.31;10250974;28;20074;-75
2024/01/16 04:02:55;;;;;;;22.48;11.55;;;;;;;-9.47;89.90;100336.97;10252563;28;20146;-75
2024/01/16 04:07:57;;;;;;;26.73;10.52;;;;;;;-9.52;90.64;100331.94;10252797;28;20042;-74
2024/01/16 04:13:03;;;;;;;27.83;10.68;;;;;;;-9.80;90.75;100293.28;10251887;28;20102;-74
2024/01/16 04:18:04;;;;;;;19.42;11.00;;;;;;;-9.57;90.54;100348.38;10245491;28;20051;-74
2024/01/16 04:23:04;;;;;;;23.65;11.15;;;;;;;-9.96;90.52;100292.00;10250688;28;20105;-74
2024/01/16 04:28:05;;;;;;;25.42;11.18;;;;;;;-9.82;90.87;100304.50;10252115;28;20047;-74
2024/01/16 04:33:06;;;;;;;21.52;10.20;;;;;;;-9.73;90.92;100306.81;10251497;28;20054;-74
2024/01/16 04:38:07;;;;;;;24.30;10.75;;;;;;;-9.46;90.54;100347.19;10252002;28;20043;-75
2024/01/16 04:43:08;;;;;;;31.73;11.43;;;;;;;-9.77;89.97;100287.22;10246375;28;20195;-74
2024/01/16 04:48:09;;;;;;;21.95;10.18;;;;;;;-9.46;89.72;100341.22;10250418;28;20973;-76
2024/01/16 04:53:10;;;;;;;27.70;10.32;;;;;;;-9.99;88.84;100280.09;10252246;28;20094;-75
2024/01/16 04:58:11;;;;;;;27.90;12.30;;;;;;;-9.59;89.64;100339.88;10251328;28;20046;-75
2024/01/16 05:03:12;;;;;;;25.67;11.82;;;;;;;-9.38;90.11;100341.03;10250796;28;20047;-75
2024/01/16 05:08:12;;;;;;;29.88;14.30;;;;;;;-9.26;89.66;100335.53;10255098;28;20112;-75
2024/01/16 05:13:13;;;;;;;30.10;13.93;;;;;;;-9.52;89.97;100259.09;10259316;28;20041;-75
2024/01/16 05:18:14;;;;;;;45.10;20.35;;;;;;;-8.93;89.34;100307.97;10259540;28;20065;-75
2024/01/16 05:23:14;;;;;;;51.38;20.90;;;;;;;-8.82;89.64;100277.59;10258257;28;20134;-75
2024/01/16 05:28:15;;;;;;;43.75;17.67;;;;;;;-8.47;89.67;100296.25;10258012;28;20039;-76
2024/01/16 05:33:16;;;;;;;33.67;14.77;;;;;;;-8.33;89.41;100288.88;10258521;28;20050;-76
2024/01/16 05:38:17;;;;;;;33.13;13.13;;;;;;;-7.93;90.22;100277.22;10258410;28;20102;-74
2024/01/16 05:43:18;;;;;;;26.92;14.05;;;;;;;-7.50;90.30;100292.97;10258564;28;20059;-76
2024/01/16 05:53:38;;;;;;;26.88;13.77;;;;;;;-6.46;89.93;100276.91;10257798;28;20043;-76
2024/01/16 05:58:39;;;;;;;25.85;13.85;;;;;;;-5.92;89.12;100286.72;10257646;28;20563;-78
2024/01/16 06:03:41;;;;;;;21.48;12.82;;;;;;;-5.46;88.61;100266.63;10257442;28;20047;-78
2024/01/16 06:08:42;;;;;;;22.15;13.30;;;;;;;-4.97;87.35;100269.56;10258137;28;20034;-77
2024/01/16 06:13:43;;;;;;;27.08;15.18;;;;;;;-4.62;86.69;100263.56;10257117;28;20102;-77
2024/01/16 06:18:45;;;;;;;33.83;18.02;;;;;;;-4.62;85.30;100245.44;10255421;28;20043;-77
2024/01/16 06:23:46;;;;;;;26.27;13.90;;;;;;;-4.49;85.48;100248.25;10256816;28;20503;-77
2024/01/16 06:28:47;;;;;;;30.48;16.48;;;;;;;-4.34;84.99;100244.06;10256170;28;20047;-76
2024/01/16 06:33:47;;;;;;;41.13;17.33;;;;;;;-4.20;85.36;100228.66;10256385;28;20047;-77
2024/01/16 06:38:48;;;;;;;27.13;16.50;;;;;;;-3.92;85.15;100232.44;10255461;28;20090;-77
2024/01/16 06:43:49;;;;;;;39.70;20.70;;;;;;;-3.73;84.45;100233.19;10256151;28;20071;-77
2024/01/16 06:48:50;;;;;;;30.23;17.35;;;;;;;-3.47;84.27;100223.19;10254951;28;20107;-76
2024/01/16 06:53:50;;;;;;;27.23;15.15;;;;;;;-3.19;83.34;100211.31;10254948;28;20050;-77
2024/01/16 06:58:51;;;;;;;22.83;13.75;;;;;;;-2.99;83.48;100211.06;10254517;28;20039;-77
2024/01/16 07:03:52;;;;;;;25.80;14.73;;;;;;;-2.74;83.26;100199.31;10254464;28;20050;-76
2024/01/16 07:08:53;;;;;;;26.60;15.13;;;;;;;-2.62;83.01;100194.22;10253394;29;20171;-76
2024/01/16 07:13:54;;;;;;;33.80;15.15;;;;;;;-2.73;82.82;100136.78;10255134;28;20086;-77
2024/01/16 07:18:55;;;;;;;43.17;14.18;;;;;;;-2.39;82.16;100150.47;10254600;28;20066;-77
2024/01/16 07:23:56;;;;;;;24.90;15.60;;;;;;;-1.89;82.83;100188.22;10254372;28;20047;-76
2024/01/16 07:28:57;;;;;;;24.55;14.75;;;;;;;-1.79;82.63;100146.88;10254122;28;20046;-75
2024/01/16 07:33:58;;;;;;;22.38;14.45;;;;;;;-1.49;82.47;100152.78;10254761;28;20515;-76
2024/01/16 07:38:58;;;;;;;25.08;15.30;;;;;;;-1.10;81.41;100174.66;10253710;28;20054;-76
2024/01/16 07:43:59;;;;;;;23.92;14.82;;;;;;;-0.92;81.52;100160.44;10253016;28;20066;-75
2024/01/16 07:49:00;;;;;;;29.13;15.73;;;;;;;-0.72;81.51;100158.28;10253426;28;20043;-75
2024/01/16 07:54:06;;;;;;;24.85;15.20;;;;;;;-0.48;80.82;100153.22;10253673;28;20046;-74
2024/01/16 07:59:07;;;;;;;23.65;15.07;;;;;;;-0.43;80.99;100137.28;10252798;28;20047;-75
2024/01/16 08:04:08;;;;;;;21.60;14.75;;;;;;;-0.27;81.30;100137.91;10252265;28;20051;-75
2024/01/16 08:09:11;;;;;;;23.17;15.07;;;;;;;0.11;80.86;100110.94;10252860;28;20047;-74
2024/01/16 08:14:12;;;;;;;23.90;15.23;;;;;;;0.01;81.71;100048.06;10252698;28;20496;-74
2024/01/16 08:19:14;;;;;;;26.38;14.93;;;;;;;0.35;82.36;100056.97;10252662;28;20067;-74
2024/01/16 08:24:15;;;;;;;24.80;15.82;;;;;;;0.21;82.85;100044.06;10252219;28;20058;-74
2024/01/16 08:29:16;;;;;;;26.85;16.58;;;;;;;0.14;82.91;100027.97;10252821;28;20046;-75
2024/01/16 08:34:16;;;;;;;26.42;15.70;;;;;;;0.28;82.99;100047.91;10252057;28;20047;-74
2024/01/16 08:39:17;;;;;;;24.77;15.52;;;;;;;0.11;83.48;100003.84;10251228;28;20039;-75
2024/01/16 08:44:18;;;;;;;20.33;13.52;;;;;;;0.84;83.31;100027.28;10251699;28;20063;-74
2024/01/16 08:49:19;;;;;;;18.90;12.07;;;;;;;1.20;84.81;99995.81;10251607;28;20050;-74
2024/01/16 08:54:22;;;;;;;21.20;12.77;;;;;;;1.12;86.24;99993.81;10251583;28;20046;-74
2024/01/16 08:59:24;;;;;;;19.63;12.43;;;;;;;0.99;87.11;99985.19;10251581;28;20404;-74
2024/01/16 09:04:24;;;;;;;19.10;11.93;;;;;;;0.77;87.68;99941.53;10251139;28;20508;-74
2024/01/16 09:09:25;;;;;;;19.08;12.38;;;;;;;1.35;87.85;99994.69;10251339;28;20043;-74
2024/01/16 09:14:26;;;;;;;21.13;12.38;;;;;;;1.51;87.54;99978.63;10251179;28;20130;-74
2024/01/16 09:19:27;;;;;;;18.10;11.85;;;;;;;1.39;88.10;99919.38;10251270;28;20039;-74
2024/01/16 09:24:27;;;;;;;17.95;11.57;;;;;;;1.67;88.35;99924.09;10251749;28;20044;-73
2024/01/16 09:29:28;;;;;;;18.75;11.13;;;;;;;1.45;89.65;99924.97;10250335;28;20051;-73
2024/01/16 09:34:29;;;;;;;17.70;10.18;;;;;;;0.94;90.74;99867.06;10250807;28;20047;-73
2024/01/16 09:39:37;;;;;;;14.52;8.93;;;;;;;1.26;91.99;99902.03;10250046;28;20097;-73
2024/01/16 09:44:38;;;;;;;14.15;9.43;;;;;;;1.55;92.05;99881.38;10250111;29;20070;-73
2024/01/16 09:49:40;;;;;;;15.52;8.75;;;;;;;2.04;91.71;99853.88;10250948;29;20047;-72
2024/01/16 09:54:41;;;;;;;13.85;8.80;;;;;;;1.82;91.67;99820.75;10253533;28;20122;-72
2024/01/16 09:59:44;;;;;;;12.57;8.63;;;;;;;2.28;92.48;99811.72;10257583;29;20622;-73
2024/01/16 10:04:44;;;;;;;15.23;8.68;;;;;;;2.42;91.98;99797.47;10256787;29;20058;-71
2024/01/16 10:09:45;;;;;;;13.05;8.68;;;;;;;2.24;94.44;99778.88;10258184;28;20054;-72
2024/01/16 10:14:47;;;;;;;19.95;9.15;;;;;;;2.54;94.99;99779.84;10257071;29;20039;-73
2024/01/16 10:19:56;;;;;;;15.00;8.90;;;;;;;2.77;96.10;99767.41;10256906;29;20051;-74
2024/01/16 10:25:11;;;;;;;16.25;9.75;;;;;;;2.59;97.69;99759.31;10256677;29;20050;-75
2024/01/16 10:30:12;;;;;;;14.27;9.30;;;;;;;2.53;98.16;99746.75;10256552;29;20047;-74
2024/01/16 10:35:14;;;;;;;23.90;9.70;;;;;;;2.49;97.73;99698.97;10255650;28;20043;-74
2024/01/16 10:40:17;;;;;;;15.50;10.27;;;;;;;3.00;97.51;99725.25;10255836;29;20035;-74
2024/01/16 10:45:19;;;;;;;16.73;9.57;;;;;;;2.93;97.33;99693.44;10256038;28;20151;-73
2024/01/16 10:50:20;;;;;;;13.75;8.52;;;;;;;3.15;97.67;99695.84;10255187;28;20422;-73
2024/01/16 10:55:24;;;;;;;13.15;7.97;;;;;;;3.15;97.87;99663.53;10254955;28;20049;-74
2024/01/16 11:00:25;;;;;;;15.02;7.90;;;;;;;3.39;97.49;99707.75;10253679;29;20050;-74
2024/01/16 11:05:26;;;;;;;12.50;7.43;;;;;;;3.18;97.95;99669.31;10254875;28;20047;-74
2024/01/16 11:10:28;;;;;;;17.15;7.00;;;;;;;3.42;98.06;99697.78;10254425;29;20050;-73
2024/01/16 11:15:29;;;;;;;11.80;6.35;;;;;;;3.45;98.11;99712.44;10254708;29;20039;-74
2024/01/16 11:20:32;;;;;;;14.40;6.90;;;;;;;3.41;99.61;99708.41;10254517;29;20153;-75
2024/01/16 11:25:34;;;;;;;12.55;6.60;;;;;;;3.05;99.94;99642.53;10269402;28;20054;-75
2024/01/16 11:30:34;;;;;;;14.73;6.55;;;;;;;3.46;100.00;99671.25;10254251;28;20408;-75
2024/01/16 11:35:37;;;;;;;11.25;6.80;;;;;;;3.38;100.00;99662.28;10253228;28;20105;-75
2024/01/16 11:40:37;;;;;;;10.82;6.10;;;;;;;3.05;100.00;99637.28;10253932;29;20490;-76
2024/01/16 11:45:47;;;;;;;13.15;6.40;;;;;;;3.26;100.00;99654.66;10254125;29;20066;-75
2024/01/16 11:50:48;;;;;;;9.23;5.63;;;;;;;3.21;100.00;99670.84;10253366;29;20110;-76
2024/01/16 11:56:18;;;;;;;14.13;5.40;;;;;;;3.22;100.00;99683.00;10253294;29;20495;-75
2024/01/16 12:01:22;;;;;;;8.82;5.88;;;;;;;3.09;100.00;99671.94;10267653;28;20054;-77
2024/01/16 12:06:23;;;;;;;8.93;5.00;;;;;;;3.16;100.00;99680.91;10252606;28;20043;-77
2024/01/16 12:11:24;;;;;;;8.93;4.93;;;;;;;3.37;100.00;99667.66;10249009;28;20090;-76
2024/01/16 12:16:25;;;;;;;8.77;4.82;;;;;;;3.67;100.00;99658.78;10249170;28;20126;-77
2024/01/16 12:21:26;;;;;;;8.27;4.65;;;;;;;3.85;100.00;99672.03;10252265;29;20517;-77
2024/01/16 12:26:27;;;;;;;9.75;4.63;;;;;;;3.91;100.00;99692.50;10252027;28;20074;-77
2024/01/16 12:31:29;;;;;;;8.93;4.50;;;;;;;3.83;100.00;99690.59;10250177;28;20074;-77
2024/01/16 12:36:29;;;;;;;16.20;4.50;;;;;;;3.60;100.00;99679.53;10251313;29;20101;-77
2024/01/16 12:41:39;;;;;;;19.30;5.68;;;;;;;3.31;100.00;99634.09;10252252;28;20082;-77
2024/01/16 12:46:40;;;;;;;15.00;5.80;;;;;;;3.19;100.00;99641.28;10247719;28;20039;-76
2024/01/16 12:51:41;;;;;;;14.45;5.95;;;;;;;2.87;100.00;99599.53;10252011;28;20050;-80
2024/01/16 12:56:42;;;;;;;8.73;5.85;;;;;;;2.97;100.00;99634.50;10251383;28;20389;-79
2024/01/16 13:01:45;;;;;;;12.60;5.47;;;;;;;2.94;100.00;99629.53;10251308;28;20050;-78
2024/01/16 13:06:48;;;;;;;13.18;5.30;;;;;;;2.87;100.00;99616.13;10249364;28;20098;-78
2024/01/16 13:11:55;;;;;;;9.10;5.35;;;;;;;2.80;100.00;99596.66;10243266;29;20070;-80
2024/01/16 13:16:55;;;;;;;10.32;5.28;;;;;;;2.73;100.00;99582.44;10231337;29;20043;-77
2024/01/16 13:21:56;;;;;;;12.43;5.25;;;;;;;2.65;100.00;99575.22;10249301;29;20047;-77
2024/01/16 13:26:58;;;;;;;15.07;5.93;;;;;;;2.29;100.00;99526.88;10247864;28;20051;-79
2024/01/16 13:31:59;;;;;;;15.13;7.72;;;;;;;2.15;100.00;99558.69;10238832;29;20450;-79
2024/01/16 13:37:04;;;;;;;12.35;7.35;;;;;;;1.99;100.00;99546.09;10236453;29;20464;-75
2024/01/16 13:42:06;;;;;;;17.50;8.57;;;;;;;2.02;100.00;99569.41;10245201;29;20542;-75
2024/01/16 13:47:07;;;;;;;14.80;8.07;;;;;;;1.80;100.00;99560.78;10220014;29;20401;-75
2024/01/16 13:52:08;;;;;;;13.63;7.75;;;;;;;1.66;100.00;99550.66;10250776;29;20047;-75
2024/01/16 13:57:08;;;;;;;11.13;5.65;;;;;;;1.67;100.00;99544.44;10222207;29;20130;-76
2024/01/16 14:02:09;;;;;;;12.63;5.90;;;;;;;1.92;100.00;99566.78;10218013;29;20118;-75
2024/01/16 14:07:10;;;;;;;13.73;6.68;;;;;;;1.88;100.00;99575.84;10217665;29;20102;-75
2024/01/16 14:12:12;;;;;;;8.95;5.22;;;;;;;1.55;100.00;99506.22;10217642;29;20070;-75
2024/01/16 14:17:12;;;;;;;11.77;5.32;;;;;;;1.88;100.00;99539.16;10217046;29;20044;-76
2024/01/16 14:22:13;;;;;;;18.95;6.60;;;;;;;1.78;100.00;99512.13;10217358;29;20102;-74
2024/01/16 14:27:15;;;;;;;10.52;5.55;;;;;;;1.82;100.00;99511.75;10217051;29;20047;-76
2024/01/16 14:32:16;;;;;;;14.38;5.43;;;;;;;1.93;100.00;99538.78;10216788;29;20036;-76
2024/01/16 14:37:17;;;;;;;9.93;5.35;;;;;;;1.95;100.00;99531.63;10214792;29;20035;-76
2024/01/16 14:42:17;;;;;;;15.10;5.40;;;;;;;1.85;100.00;99494.09;10215829;29;20150;-76
2024/01/16 14:47:19;;;;;;;15.48;6.20;;;;;;;1.88;100.00;99510.34;10215733;29;20051;-76
2024/01/16 14:52:22;;;;;;;9.50;5.07;;;;;;;1.89;100.00;99479.78;10221584;29;20563;-75
2024/01/16 14:57:23;;;;;;;11.90;4.72;;;;;;;1.88;100.00;99472.88;10231437;29;20558;-75
2024/01/16 15:02:23;;;;;;;7.03;4.53;;;;;;;1.81;100.00;99449.84;10255317;28;20189;-75
2024/01/16 15:07:26;;;;;;;12.68;4.53;;;;;;;1.80;100.00;99463.91;10254642;28;20582;-76
2024/01/16 15:12:27;;;;;;;9.07;4.28;;;;;;;1.89;100.00;99458.84;10251384;29;20042;-76
2024/01/16 15:17:28;;;;;;;22.13;4.70;;;;;;;1.95;100.00;99429.47;10254705;28;20047;-76
2024/01/16 15:22:29;;;;;;;18.25;4.40;;;;;;;2.17;100.00;99428.41;10253840;29;20527;-76
2024/01/16 15:27:30;;;;;;;10.32;4.55;;;;;;;2.21;100.00;99433.22;10253924;29;20055;-76
2024/01/16 15:32:32;;;;;;;15.55;4.68;;;;;;;2.18;100.00;99443.97;10254091;28;20094;-77
2024/01/16 15:42:57;;;;;;;9.38;4.18;;;;;;;2.24;100.00;99432.97;10253351;28;20166;-78
2024/01/16 15:47:57;;;;;;;7.88;3.65;;;;;;;2.29;100.00;99443.03;10253620;29;20660;-76
2024/01/16 15:52:59;;;;;;;8.95;4.50;;;;;;;2.26;100.00;99419.72;10251915;28;20043;-76
2024/01/16 15:58:00;;;;;;;16.02;5.25;;;;;;;1.99;100.00;99383.72;10253143;29;20127;-78
2024/01/16 16:03:00;;;;;;;10.90;5.10;;;;;;;2.27;100.00;99432.69;10252454;29;20043;-77
2024/01/16 16:08:01;;;;;;;10.77;4.53;;;;;;;2.23;100.00;99426.06;10252429;29;20078;-77
2024/01/16 16:13:04;;;;;;;13.88;6.20;;;;;;;1.95;100.00;99369.25;10253248;29;20070;-76
2024/01/16 16:18:04;;;;;;;13.38;5.65;;;;;;;1.96;100.00;99378.75;10252170;28;20043;-78
2024/01/16 16:23:07;;;;;;;9.63;4.85;;;;;;;2.22;100.00;99419.16;10252298;29;20126;-77
2024/01/16 16:28:07;;;;;;;12.05;4.78;;;;;;;2.34;100.00;99419.03;10252315;29;20050;-77
2024/01/16 16:33:08;;;;;;;10.93;4.75;;;;;;;2.11;100.00;99385.22;10252200;29;20047;-77
2024/01/16 16:38:10;;;;;;;9.20;4.78;;;;;;;2.45;100.00;99429.34;10251751;29;20051;-77
2024/01/16 16:43:10;;;;;;;11.45;4.80;;;;;;;2.50;100.00;99429.78;10251954;29;20062;-78
2024/01/16 16:48:12;;;;;;;13.10;5.45;;;;;;;2.48;100.00;99431.69;10251644;29;20047;-76
2024/01/16 16:53:13;;;;;;;10.20;5.40;;;;;;;2.57;100.00;99440.53;10251692;29;20039;-76
2024/01/16 16:58:14;;;;;;;12.75;5.65;;;;;;;2.51;100.00;99436.66;10250869;29;20121;-78
2024/01/16 17:03:15;;;;;;;12.70;6.57;;;;;;;2.28;100.00;99405.50;10253265;28;20047;-78
2024/01/16 17:08:16;;;;;;;11.88;6.63;;;;;;;2.51;100.00;99442.75;10258808;29;20043;-78
2024/01/16 17:13:16;;;;;;;14.50;7.18;;;;;;;2.21;100.00;99393.91;10258908;29;20039;-77
2024/01/16 17:18:18;;;;;;;13.27;7.07;;;;;;;2.46;100.00;99437.09;10258626;28;20423;-78
2024/01/16 17:23:19;;;;;;;12.77;6.72;;;;;;;2.47;100.00;99440.53;10259269;28;20051;-78
2024/01/16 17:28:22;;;;;;;12.98;6.72;;;;;;;2.50;100.00;99453.38;10259475;28;20130;-77
2024/01/16 17:33:23;;;;;;;15.60;6.40;;;;;;;2.49;100.00;99451.72;10258066;28;20049;-77
2024/01/16 17:38:24;;;;;;;14.50;7.07;;;;;;;2.15;100.00;99404.94;10258258;28;20130;-77
2024/01/16 17:43:25;;;;;;;19.58;7.60;;;;;;;2.46;100.00;99467.72;10258295;29;20151;-76
2024/01/16 17:48:26;;;;;;;11.98;6.50;;;;;;;2.45;100.00;99477.41;10258225;29;20508;-77
2024/01/16 17:53:27;;;;;;;18.83;6.32;;;;;;;2.55;100.00;99476.56;10257816;28;20039;-77
2024/01/16 17:58:28;;;;;;;13.60;6.70;;;;;;;2.55;100.00;99460.84;10257343;29;20051;-77
2024/01/16 18:03:29;;;;;;;12.30;6.20;;;;;;;2.54;100.00;99480.97;10257426;29;20415;-77
2024/01/16 18:08:29;;;;;;;13.15;7.35;;;;;;;2.38;100.00;99436.13;10256911;29;20090;-78
2024/01/16 18:13:31;;;;;;;21.40;7.03;;;;;;;2.48;100.00;99486.75;10256298;28;20051;-78
2024/01/16 18:18:32;;;;;;;17.65;8.90;;;;;;;2.46;100.00;99467.72;10256300;28;20495;-78
2024/01/16 18:23:34;;;;;;;16.17;7.40;;;;;;;2.41;100.00;99454.19;10256765;28;20050;-78
2024/01/16 18:28:35;;;;;;;14.77;6.50;;;;;;;2.35;100.00;99445.09;10257014;29;20129;-79
2024/01/16 18:33:38;;;;;;;12.25;6.35;;;;;;;2.39;100.00;99429.91;10255755;29;20122;-79
2024/01/16 18:38:40;;;;;;;17.02;6.65;;;;;;;2.13;100.00;99379.88;10256184;29;20126;-79
2024/01/16 18:43:41;;;;;;;10.50;6.32;;;;;;;2.28;100.00;99421.22;10255211;29;20062;-79
2024/01/16 18:48:42;;;;;;;12.80;6.32;;;;;;;2.00;100.00;99390.59;10255372;28;20130;-78
2024/01/16 18:53:43;;;;;;;12.65;6.38;;;;;;;2.11;100.00;99402.75;10255987;29;20043;-78
2024/01/16 18:58:44;;;;;;;14.48;6.85;;;;;;;2.06;100.00;99397.91;10254888;29;20074;-78
2024/01/16 19:03:46;;;;;;;10.40;6.07;;;;;;;2.16;100.00;99424.94;10253934;29;20138;-76
2024/01/16 19:08:47;;;;;;;14.90;5.93;;;;;;;2.41;100.00;99460.25;10254788;29;20075;-77
2024/01/16 19:13:48;;;;;;;10.00;6.03;;;;;;;2.38;100.00;99460.53;10255437;29;20050;-77
2024/01/16 19:18:48;;;;;;;11.20;5.43;;;;;;;2.42;100.00;99484.69;10253942;29;20511;-77
2024/01/16 19:23:50;;;;;;;17.92;6.38;;;;;;;2.36;100.00;99490.47;10253811;28;20500;-76
2024/01/16 19:28:50;;;;;;;13.63;5.97;;;;;;;2.40;100.00;99497.94;10253713;28;20042;-76
2024/01/16 19:33:51;;;;;;;10.02;5.57;;;;;;;2.41;100.00;99496.97;10249735;29;20511;-76
2024/01/16 19:38:52;;;;;;;14.80;6.00;;;;;;;2.40;100.00;99491.88;10250640;29;20042;-76
2024/01/16 19:43:52;;;;;;;9.32;6.18;;;;;;;2.48;100.00;99495.47;10252417;29;20090;-76
2024/01/16 19:48:53;;;;;;;11.98;6.45;;;;;;;2.48;100.00;99511.19;10253161;29;20043;-76
2024/01/16 19:53:55;;;;;;;17.85;8.70;;;;;;;2.15;100.00;99478.31;10252400;29;20389;-76
2024/01/16 19:58:57;;;;;;;14.02;5.68;;;;;;;2.50;100.00;99539.88;10251987;28;20039;-76
2024/01/16 20:03:59;;;;;;;15.80;6.50;;;;;;;2.30;100.00;99491.84;10252639;28;20059;-77
2024/01/16 20:09:04;;;;;;;16.90;6.07;;;;;;;2.43;100.00;99541.41;10252360;29;20512;-76
2024/01/16 20:14:04;;;;;;;16.67;6.72;;;;;;;2.46;100.00;99557.69;10252244;29;20043;-76
2024/01/16 20:19:07;;;;;;;12.77;6.65;;;;;;;2.33;100.00;99524.81;10252815;29;20035;-77
2024/01/16 20:24:08;;;;;;;15.18;6.75;;;;;;;2.43;100.00;99552.72;10251618;29;20455;-77
2024/01/16 20:29:10;;;;;;;12.23;6.13;;;;;;;2.13;100.00;99535.28;10252781;29;20040;-76
2024/01/16 20:34:11;;;;;;;9.75;6.10;;;;;;;2.33;100.00;99585.09;10251618;29;20055;-76
2024/01/16 20:39:12;;;;;;;11.13;5.88;;;;;;;2.13;100.00;99564.09;10250896;28;20126;-76
2024/01/16 20:44:32;;;;;;;10.45;5.63;;;;;;;2.45;100.00;99623.34;10252041;29;20155;-76
2024/01/16 20:49:33;;;;;;;10.75;5.88;;;;;;;2.43;100.00;99636.59;10251628;29;20051;-76
2024/01/16 20:54:38;;;;;;;14.35;6.03;;;;;;;2.40;100.00;99643.91;10251684;29;20043;-75
2024/01/16 20:59:39;;;;;;;12.95;5.90;;;;;;;2.36;100.00;99671.31;10251576;29;20522;-75
2024/01/16 21:04:39;;;;;;;10.10;5.50;;;;;;;2.37;100.00;99738.53;10250792;29;20050;-76
2024/01/16 21:09:42;;;;;;;9.27;6.53;;;;;;;2.33;100.00;99713.53;10251114;29;20043;-76
2024/01/16 21:14:43;;;;;;;17.02;6.97;;;;;;;2.33;100.00;99745.78;10250853;29;20054;-76
2024/01/16 21:19:44;;;;;;;13.13;6.18;;;;;;;1.98;100.00;99701.63;10250672;29;20046;-75
2024/01/16 21:24:45;;;;;;;13.50;6.55;;;;;;;2.27;100.00;99778.63;10251603;29;20089;-75
2024/01/16 21:29:47;;;;;;;13.50;7.35;;;;;;;2.11;100.00;99798.38;10250540;29;20063;-75
2024/01/16 21:34:48;;;;;;;11.93;7.63;;;;;;;2.02;100.00;99806.00;10251940;29;20074;-75
2024/01/16 21:39:49;;;;;;;16.45;9.02;;;;;;;1.95;100.00;99783.09;10250133;29;20047;-76
2024/01/16 21:44:51;;;;;;;20.13;9.50;;;;;;;1.89;100.00;99760.84;10251040;29;20063;-76
2024/01/16 21:49:52;;;;;;;17.42;9.85;;;;;;;1.96;100.00;99824.03;10253983;28;20047;-75
2024/01/16 21:54:52;;;;;;;19.25;10.07;;;;;;;1.93;100.00;99834.75;10258429;29;20035;-76
2024/01/16 21:59:53;;;;;;;18.27;10.10;;;;;;;2.05;100.00;99834.59;10257886;28;20125;-76
2024/01/16 22:04:54;;;;;;;17.70;10.07;;;;;;;2.09;100.00;99847.44;10257560;28;20046;-76
2024/01/16 22:09:56;;;;;;;13.90;7.38;;;;;;;1.80;100.00;99812.19;10256842;28;20138;-76
2024/01/16 22:14:57;;;;;;;16.90;9.05;;;;;;;1.80;100.00;99840.19;10257422;29;20050;-76
2024/01/16 22:19:57;;;;;;;15.50;8.45;;;;;;;1.85;100.00;99876.44;10255213;29;20419;-76
2024/01/16 22:24:58;;;;;;;19.23;9.38;;;;;;;2.02;100.00;99944.03;10256302;28;20057;-76
2024/01/16 22:30:00;;;;;;;18.33;9.20;;;;;;;2.16;100.00;99971.78;10256704;28;20097;-76
2024/01/16 22:35:01;;;;;;;22.45;9.38;;;;;;;2.18;100.00;99991.63;10256733;28;20488;-76
2024/01/16 22:40:03;;;;;;;16.75;8.82;;;;;;;2.19;100.00;100013.44;10256092;28;20054;-76
2024/01/16 22:45:06;;;;;;;19.27;9.05;;;;;;;2.18;100.00;100004.72;10256403;28;20464;-76
2024/01/16 22:50:08;;;;;;;23.83;10.93;;;;;;;2.20;100.00;100022.97;10255953;28;20043;-76
2024/01/16 22:55:09;;;;;;;24.33;10.73;;;;;;;2.10;100.00;100014.19;10255342;28;20043;-76
2024/01/16 23:00:19;;;;;;;24.58;11.32;;;;;;;2.10;100.00;100028.13;10254597;28;20123;-76
2024/01/16 23:05:20;;;;;;;18.60;10.98;;;;;;;2.23;100.00;100065.47;10255279;28;20122;-76